Time;durP1;ratioP1;P1;durP2;ratioP2;P2;SDS_P1;SDS_P2;PMS_P1;PMS_P2;Temp;Humidity;BMP_temperature;BMP_pressure;BME280_temperature;BME280_humidity;BME280_pressure;Samples;Min_cycle;Max_cycle;Signal;HPM_P1;HPM_P2
2023/05/12 00:02:22;;;;;;;30.27;18.00;;;;;;;;;;5055981;28;20836;-46
2023/05/12 00:04:48;;;;;;;34.47;21.00;;;;;;;;;;5052989;28;20410;-46
2023/05/12 00:07:14;;;;;;;28.87;18.80;;;;;;;;;;5063259;28;20415;-48
2023/05/12 00:09:40;;;;;;;26.07;17.70;;;;;;;;;;5062914;28;20536;-46
2023/05/12 00:12:07;;;;;;;29.30;18.23;;;;;;;;;;5062895;28;20419;-46
2023/05/12 00:14:34;;;;;;;29.23;17.53;;;;;;;;;;5060860;28;20458;-47
2023/05/12 00:17:00;;;;;;;28.87;17.13;;;;;;;;;;5061987;28;20970;-47
2023/05/12 00:19:26;;;;;;;31.00;19.27;;;;;;;;;;5058363;28;20411;-48
2023/05/12 00:21:52;;;;;;;25.87;17.63;;;;;;;;;;5063223;28;20419;-48
2023/05/12 00:24:18;;;;;;;25.10;16.60;;;;;;;;;;5062055;28;20807;-49
2023/05/12 00:26:44;;;;;;;28.37;18.37;;;;;;;;;;5060733;28;20409;-48
2023/05/12 00:29:10;;;;;;;24.13;15.10;;;;;;;;;;5063611;27;20415;-48
2023/05/12 00:31:36;;;;;;;24.80;15.07;;;;;;;;;;5055690;28;20829;-47
2023/05/12 00:34:02;;;;;;;21.43;14.03;;;;;;;;;;5061702;28;20481;-46
2023/05/12 00:36:28;;;;;;;20.33;14.23;;;;;;;;;;5060625;28;20977;-48
2023/05/12 00:38:55;;;;;;;19.43;13.63;;;;;;;;;;5067421;28;20382;-48
2023/05/12 00:41:21;;;;;;;23.93;14.27;;;;;;;;;;5062012;28;20410;-46
2023/05/12 00:43:47;;;;;;;21.30;14.20;;;;;;;;;;5055109;28;20827;-47
2023/05/12 00:46:13;;;;;;;20.90;12.57;;;;;;;;;;5062358;28;20482;-49
2023/05/12 00:48:39;;;;;;;28.23;14.10;;;;;;;;;;5061088;28;20446;-48
2023/05/12 00:51:05;;;;;;;20.80;14.20;;;;;;;;;;5063077;28;20830;-46
2023/05/12 00:53:32;;;;;;;23.83;14.73;;;;;;;;;;5064519;28;20501;-47
2023/05/12 00:55:58;;;;;;;20.27;13.50;;;;;;;;;;5065601;28;20466;-46
2023/05/12 00:58:24;;;;;;;19.73;11.00;;;;;;;;;;5065570;28;20555;-48
2023/05/12 01:00:50;;;;;;;23.50;14.50;;;;;;;;;;5072552;28;20402;-47
2023/05/12 01:03:16;;;;;;;16.00;11.67;;;;;;;;;;5071692;28;20893;-49
2023/05/12 01:05:47;;;;;;;11.93;9.43;;;;;;;;;;5072047;28;20403;-48
2023/05/12 01:08:13;;;;;;;12.90;9.33;;;;;;;;;;5072496;27;20966;-48
2023/05/12 01:10:43;;;;;;;14.20;10.10;;;;;;;;;;5072303;27;20396;-48
2023/05/12 01:13:09;;;;;;;10.80;8.40;;;;;;;;;;5072097;28;20822;-46
2023/05/12 01:15:36;;;;;;;12.80;8.87;;;;;;;;;;5050920;27;20750;-49
2023/05/12 01:18:02;;;;;;;10.50;7.77;;;;;;;;;;5051456;28;20501;-49
2023/05/12 01:20:29;;;;;;;13.37;9.13;;;;;;;;;;5052320;28;20427;-48
2023/05/12 01:22:57;;;;;;;14.83;9.07;;;;;;;;;;5052101;28;20407;-47
2023/05/12 01:25:24;;;;;;;12.20;8.67;;;;;;;;;;5051990;28;20428;-49
2023/05/12 01:27:52;;;;;;;15.17;8.70;;;;;;;;;;5052309;28;20406;-46
2023/05/12 01:30:18;;;;;;;9.20;7.80;;;;;;;;;;5052348;28;20394;-49
2023/05/12 01:32:44;;;;;;;13.00;6.03;;;;;;;;;;5052464;28;20496;-48
2023/05/12 01:35:11;;;;;;;7.70;6.43;;;;;;;;;;5052764;28;20437;-47
2023/05/12 01:37:37;;;;;;;10.40;7.80;;;;;;;;;;5052442;28;20943;-48
2023/05/12 01:40:03;;;;;;;9.13;6.50;;;;;;;;;;5052593;28;20372;-47
2023/05/12 01:42:29;;;;;;;12.40;9.90;;;;;;;;;;5051797;28;20407;-47
2023/05/12 01:44:55;;;;;;;8.30;6.87;;;;;;;;;;5049670;28;20451;-49
2023/05/12 01:47:21;;;;;;;10.37;6.27;;;;;;;;;;5051444;28;20428;-48
2023/05/12 01:49:47;;;;;;;10.00;8.80;;;;;;;;;;5050341;28;20839;-49
2023/05/12 01:52:13;;;;;;;11.03;8.77;;;;;;;;;;5056433;28;20408;-46
2023/05/12 01:54:39;;;;;;;8.10;6.53;;;;;;;;;;5060315;27;20878;-48
2023/05/12 01:57:05;;;;;;;7.93;6.70;;;;;;;;;;5061620;28;20819;-48
2023/05/12 01:59:31;;;;;;;8.03;6.17;;;;;;;;;;5057504;28;20422;-47
2023/05/12 02:01:57;;;;;;;8.10;6.57;;;;;;;;;;5067178;28;20500;-47
2023/05/12 02:04:23;;;;;;;8.83;6.93;;;;;;;;;;5061699;28;20432;-47
2023/05/12 02:06:49;;;;;;;6.03;5.43;;;;;;;;;;5059099;27;20423;-47
2023/05/12 02:09:15;;;;;;;9.67;7.93;;;;;;;;;;5066217;27;20436;-48
2023/05/12 02:11:40;;;;;;;7.03;6.33;;;;;;;;;;5059705;28;20423;-49
2023/05/12 02:14:06;;;;;;;7.20;6.43;;;;;;;;;;5058266;28;20446;-49
2023/05/12 02:16:32;;;;;;;9.17;6.60;;;;;;;;;;5064080;27;20853;-49
2023/05/12 02:18:58;;;;;;;6.70;5.83;;;;;;;;;;5065277;28;20510;-47
2023/05/12 02:21:25;;;;;;;6.87;5.50;;;;;;;;;;5060648;28;20428;-48
2023/05/12 02:23:51;;;;;;;14.47;5.97;;;;;;;;;;5057092;28;20976;-48
2023/05/12 02:26:18;;;;;;;7.73;6.10;;;;;;;;;;5060005;27;20401;-48
2023/05/12 02:28:44;;;;;;;8.43;7.60;;;;;;;;;;5058480;28;20465;-48
2023/05/12 02:31:10;;;;;;;9.40;7.40;;;;;;;;;;5061442;28;20407;-49
2023/05/12 02:33:36;;;;;;;9.20;7.40;;;;;;;;;;5062002;27;20522;-49
2023/05/12 02:36:02;;;;;;;7.60;6.53;;;;;;;;;;5063585;28;20405;-47
2023/05/12 02:38:28;;;;;;;9.03;8.13;;;;;;;;;;5058729;28;20490;-49
2023/05/12 02:40:54;;;;;;;13.10;5.57;;;;;;;;;;5055077;27;20500;-47
2023/05/12 02:43:20;;;;;;;12.07;9.20;;;;;;;;;;5060062;27;20450;-47
2023/05/12 02:45:46;;;;;;;8.20;6.40;;;;;;;;;;5055230;28;20423;-46
2023/05/12 02:48:12;;;;;;;7.20;5.97;;;;;;;;;;5062765;27;20752;-46
2023/05/12 02:50:37;;;;;;;6.43;5.70;;;;;;;;;;5059803;27;20427;-48
2023/05/12 02:53:04;;;;;;;6.40;5.80;;;;;;;;;;5060988;28;20435;-48
2023/05/12 02:55:30;;;;;;;9.37;6.83;;;;;;;;;;5056744;28;20438;-48
2023/05/12 02:57:56;;;;;;;7.70;6.93;;;;;;;;;;5061241;27;20973;-47
2023/05/12 03:00:22;;;;;;;8.70;6.30;;;;;;;;;;5060659;28;20443;-48
2023/05/12 03:02:48;;;;;;;9.27;7.37;;;;;;;;;;5057741;27;20412;-48
2023/05/12 03:05:14;;;;;;;8.47;5.63;;;;;;;;;;5061158;28;20426;-49
2023/05/12 03:07:40;;;;;;;8.60;6.57;;;;;;;;;;5058326;28;20412;-46
2023/05/12 03:10:06;;;;;;;8.93;6.67;;;;;;;;;;5059165;28;20839;-47
2023/05/12 03:12:32;;;;;;;15.63;11.20;;;;;;;;;;5058297;28;20419;-47
2023/05/12 03:14:58;;;;;;;10.77;8.00;;;;;;;;;;5058082;28;20443;-46
2023/05/12 03:17:24;;;;;;;9.37;7.20;;;;;;;;;;5058796;28;20526;-45
2023/05/12 03:19:50;;;;;;;9.77;7.73;;;;;;;;;;5055993;27;20428;-47
2023/05/12 03:22:16;;;;;;;10.67;7.73;;;;;;;;;;5059349;27;20412;-49
2023/05/12 03:24:42;;;;;;;10.80;7.77;;;;;;;;;;5058576;28;20472;-49
2023/05/12 03:27:08;;;;;;;11.40;7.37;;;;;;;;;;5059990;28;20427;-44
2023/05/12 03:29:34;;;;;;;8.77;6.70;;;;;;;;;;5059978;27;20495;-44
2023/05/12 03:32:00;;;;;;;10.20;7.70;;;;;;;;;;5061016;28;20418;-44
2023/05/12 03:34:26;;;;;;;8.73;7.30;;;;;;;;;;5056122;28;20432;-45
2023/05/12 03:36:51;;;;;;;17.20;9.40;;;;;;;;;;5052841;27;20497;-45
2023/05/12 03:39:17;;;;;;;9.00;7.20;;;;;;;;;;5060359;27;20411;-47
2023/05/12 03:41:43;;;;;;;9.30;7.00;;;;;;;;;;5058074;27;20399;-44
2023/05/12 03:44:11;;;;;;;10.67;7.33;;;;;;;;;;5057582;28;20535;-43
2023/05/12 03:46:37;;;;;;;11.47;7.70;;;;;;;;;;5054114;28;20426;-44
2023/05/12 03:49:03;;;;;;;11.63;7.77;;;;;;;;;;5058091;27;20485;-44
2023/05/12 03:51:29;;;;;;;12.07;8.40;;;;;;;;;;5062198;28;20443;-45
2023/05/12 03:53:55;;;;;;;11.90;8.20;;;;;;;;;;5068061;28;20422;-44
2023/05/12 03:56:21;;;;;;;9.83;7.83;;;;;;;;;;5068476;27;20762;-45
2023/05/12 03:58:47;;;;;;;10.93;7.57;;;;;;;;;;5068387;28;20408;-44
2023/05/12 04:01:13;;;;;;;10.70;7.40;;;;;;;;;;5068432;27;20400;-44
2023/05/12 04:03:40;;;;;;;14.63;8.53;;;;;;;;;;5068307;27;20839;-44
2023/05/12 04:06:06;;;;;;;14.10;8.17;;;;;;;;;;5068374;28;20920;-45
2023/05/12 04:08:33;;;;;;;11.27;8.63;;;;;;;;;;5068324;27;20458;-44
2023/05/12 04:10:59;;;;;;;11.30;8.13;;;;;;;;;;5068345;27;20408;-45
2023/05/12 04:13:26;;;;;;;9.90;7.27;;;;;;;;;;5060654;28;20459;-44
2023/05/12 04:15:55;;;;;;;9.73;7.67;;;;;;;;;;5047596;28;20435;-44
2023/05/12 04:18:21;;;;;;;8.77;7.07;;;;;;;;;;5048193;28;20953;-44
2023/05/12 04:20:47;;;;;;;9.10;7.07;;;;;;;;;;5048188;28;20426;-43
2023/05/12 04:23:14;;;;;;;10.17;7.50;;;;;;;;;;5047916;28;20824;-44
2023/05/12 04:25:40;;;;;;;10.20;7.73;;;;;;;;;;5048224;28;20497;-45
2023/05/12 04:28:07;;;;;;;9.53;7.80;;;;;;;;;;5048127;28;20422;-44
2023/05/12 04:30:33;;;;;;;8.17;7.07;;;;;;;;;;5048090;28;20477;-44
2023/05/12 04:32:59;;;;;;;11.87;7.07;;;;;;;;;;5047879;28;20408;-44
2023/05/12 04:35:25;;;;;;;9.27;6.20;;;;;;;;;;5048090;28;20425;-46
2023/05/12 04:37:52;;;;;;;10.67;7.47;;;;;;;;;;5047799;28;20455;-44
2023/05/12 04:40:18;;;;;;;9.97;6.63;;;;;;;;;;5048136;28;20490;-44
2023/05/12 04:42:44;;;;;;;11.03;8.23;;;;;;;;;;5046570;28;20399;-44
2023/05/12 04:45:10;;;;;;;8.37;6.27;;;;;;;;;;5047922;28;20539;-44
2023/05/12 04:47:36;;;;;;;8.37;6.27;;;;;;;;;;5046935;28;20440;-44
2023/05/12 04:50:03;;;;;;;7.70;6.40;;;;;;;;;;5047793;28;20419;-44
2023/05/12 04:52:29;;;;;;;10.73;7.93;;;;;;;;;;5048675;28;20491;-46
2023/05/12 04:54:55;;;;;;;10.70;7.30;;;;;;;;;;5051235;28;20429;-45
2023/05/12 04:57:21;;;;;;;8.33;6.90;;;;;;;;;;5051105;28;20455;-46
2023/05/12 04:59:47;;;;;;;9.10;6.43;;;;;;;;;;5051310;28;21014;-44
2023/05/12 05:02:13;;;;;;;8.10;6.33;;;;;;;;;;5051010;28;20410;-45
2023/05/12 05:04:39;;;;;;;10.57;8.37;;;;;;;;;;5051268;28;20516;-44
2023/05/12 05:07:05;;;;;;;8.57;6.97;;;;;;;;;;5050964;28;20475;-44
2023/05/12 05:09:31;;;;;;;10.90;5.97;;;;;;;;;;5050898;28;20419;-44
2023/05/12 05:11:57;;;;;;;7.80;6.30;;;;;;;;;;5050991;28;20780;-44
2023/05/12 05:14:23;;;;;;;12.83;6.40;;;;;;;;;;5049502;28;20452;-45
2023/05/12 05:16:49;;;;;;;7.70;6.90;;;;;;;;;;5050850;28;20543;-45
2023/05/12 05:19:15;;;;;;;14.93;6.90;;;;;;;;;;5050819;28;20760;-45
2023/05/12 05:21:41;;;;;;;8.57;6.27;;;;;;;;;;5050710;28;20505;-45
2023/05/12 05:24:08;;;;;;;8.93;6.67;;;;;;;;;;5050472;28;20413;-45
2023/05/12 05:26:34;;;;;;;11.47;7.30;;;;;;;;;;5050765;28;20465;-45
2023/05/12 05:29:01;;;;;;;7.27;6.47;;;;;;;;;;5050705;28;20403;-44
2023/05/12 05:31:27;;;;;;;7.07;6.37;;;;;;;;;;5050762;28;20405;-44
2023/05/12 05:33:53;;;;;;;6.77;5.83;;;;;;;;;;5050347;28;20402;-45
2023/05/12 05:36:20;;;;;;;10.73;6.07;;;;;;;;;;5050533;28;20865;-43
2023/05/12 05:38:46;;;;;;;8.20;6.37;;;;;;;;;;5050607;28;20418;-44
2023/05/12 05:41:12;;;;;;;6.63;6.03;;;;;;;;;;5050809;28;20442;-44
2023/05/12 05:43:38;;;;;;;21.73;14.90;;;;;;;;;;5048220;28;20514;-44
2023/05/12 05:46:04;;;;;;;23.37;15.40;;;;;;;;;;5050562;28;20913;-44
2023/05/12 05:48:30;;;;;;;11.97;8.50;;;;;;;;;;5050388;28;20791;-44
2023/05/12 05:50:56;;;;;;;8.63;6.13;;;;;;;;;;5050344;28;20369;-44
2023/05/12 05:53:22;;;;;;;9.00;6.60;;;;;;;;;;5050072;28;20480;-44
2023/05/12 05:55:48;;;;;;;13.73;5.83;;;;;;;;;;5050460;28;20777;-44
2023/05/12 05:58:14;;;;;;;7.77;6.17;;;;;;;;;;5050120;28;20445;-44
2023/05/12 06:00:41;;;;;;;7.90;6.73;;;;;;;;;;5050254;28;20477;-44
2023/05/12 06:03:07;;;;;;;10.03;7.17;;;;;;;;;;5047512;28;20759;-44
2023/05/12 06:05:33;;;;;;;9.50;6.23;;;;;;;;;;5063509;28;20931;-44
2023/05/12 06:07:59;;;;;;;8.47;6.10;;;;;;;;;;5057932;27;20482;-45
2023/05/12 06:10:25;;;;;;;7.70;6.63;;;;;;;;;;5058236;28;20404;-45
2023/05/12 06:12:51;;;;;;;10.03;6.70;;;;;;;;;;5057858;28;20504;-45
2023/05/12 06:15:17;;;;;;;8.53;5.83;;;;;;;;;;5055904;27;20441;-45
2023/05/12 06:17:43;;;;;;;9.17;7.50;;;;;;;;;;5057983;28;20523;-44
2023/05/12 06:20:12;;;;;;;7.63;6.50;;;;;;;;;;5057052;28;20429;-46
2023/05/12 06:22:38;;;;;;;10.70;7.37;;;;;;;;;;5051422;28;20417;-44
2023/05/12 06:25:04;;;;;;;9.77;6.37;;;;;;;;;;5057319;27;20928;-47
2023/05/12 06:27:30;;;;;;;7.27;5.83;;;;;;;;;;5058128;28;20611;-45
2023/05/12 06:29:56;;;;;;;8.27;6.23;;;;;;;;;;5058651;28;20413;-46
2023/05/12 06:32:22;;;;;;;6.90;6.07;;;;;;;;;;5057558;28;20401;-44
2023/05/12 06:34:48;;;;;;;7.70;6.90;;;;;;;;;;5052105;28;20905;-44
2023/05/12 06:37:14;;;;;;;6.17;5.10;;;;;;;;;;5049124;28;20464;-45
2023/05/12 06:39:40;;;;;;;6.70;5.60;;;;;;;;;;5060970;28;20412;-44
2023/05/12 06:42:06;;;;;;;8.93;6.13;;;;;;;;;;5054420;27;20423;-44
2023/05/12 06:44:32;;;;;;;9.70;6.33;;;;;;;;;;5057450;27;20427;-44
2023/05/12 06:46:58;;;;;;;12.90;8.73;;;;;;;;;;5056899;28;20930;-44
2023/05/12 06:49:24;;;;;;;11.73;7.03;;;;;;;;;;5059244;27;20408;-45
2023/05/12 06:51:50;;;;;;;12.10;6.57;;;;;;;;;;5056796;27;20399;-44
2023/05/12 06:54:16;;;;;;;9.87;7.20;;;;;;;;;;5059480;27;20440;-46
2023/05/12 06:56:42;;;;;;;9.20;7.40;;;;;;;;;;5055827;28;20547;-45
2023/05/12 06:59:08;;;;;;;10.43;7.10;;;;;;;;;;5055682;28;21621;-44
2023/05/12 07:01:34;;;;;;;9.90;6.37;;;;;;;;;;5062156;28;20941;-44
2023/05/12 07:04:00;;;;;;;6.93;5.67;;;;;;;;;;5058295;27;20433;-46
2023/05/12 07:06:26;;;;;;;9.60;6.23;;;;;;;;;;5060085;27;20376;-44
2023/05/12 07:08:53;;;;;;;6.10;5.13;;;;;;;;;;5057749;28;20433;-45
2023/05/12 07:11:19;;;;;;;6.70;5.63;;;;;;;;;;5059319;27;20823;-44
2023/05/12 07:13:46;;;;;;;6.80;5.27;;;;;;;;;;5055506;28;20438;-44
2023/05/12 07:16:12;;;;;;;9.07;6.80;;;;;;;;;;5054950;28;20420;-43
2023/05/12 07:18:38;;;;;;;6.90;5.43;;;;;;;;;;5060455;27;20600;-44
2023/05/12 07:21:04;;;;;;;5.87;5.17;;;;;;;;;;5056717;27;20974;-45
2023/05/12 07:23:30;;;;;;;6.93;5.07;;;;;;;;;;5057415;27;20888;-44
2023/05/12 07:25:56;;;;;;;7.20;5.60;;;;;;;;;;5057966;28;20896;-44
2023/05/12 07:28:22;;;;;;;6.37;5.50;;;;;;;;;;5050065;28;20397;-46
2023/05/12 07:30:48;;;;;;;9.50;6.37;;;;;;;;;;5057213;28;20413;-47
2023/05/12 07:33:14;;;;;;;11.50;6.03;;;;;;;;;;5050660;28;20440;-44
2023/05/12 07:35:40;;;;;;;6.43;5.73;;;;;;;;;;5060144;28;20399;-44
2023/05/12 07:38:08;;;;;;;6.73;5.87;;;;;;;;;;5054843;27;20465;-44
2023/05/12 07:40:34;;;;;;;8.93;6.70;;;;;;;;;;5055165;28;20388;-44
2023/05/12 07:43:01;;;;;;;6.80;5.40;;;;;;;;;;5056863;28;20787;-46
2023/05/12 07:45:27;;;;;;;7.07;6.37;;;;;;;;;;5060074;28;20424;-43
2023/05/12 07:47:53;;;;;;;6.73;5.53;;;;;;;;;;5058227;27;20398;-44
2023/05/12 07:50:20;;;;;;;11.60;7.30;;;;;;;;;;5060531;27;20419;-45
2023/05/12 07:52:49;;;;;;;6.83;6.13;;;;;;;;;;5059137;28;20811;-45
2023/05/12 07:55:16;;;;;;;7.33;5.70;;;;;;;;;;5045475;28;20506;-44
2023/05/12 07:57:42;;;;;;;8.30;6.20;;;;;;;;;;5057801;27;20859;-44
2023/05/12 08:00:09;;;;;;;8.97;6.20;;;;;;;;;;5058009;27;20419;-47
2023/05/12 08:02:36;;;;;;;11.00;9.13;;;;;;;;;;5058002;28;20492;-44
2023/05/12 08:05:03;;;;;;;6.73;6.07;;;;;;;;;;5055554;28;20521;-44
2023/05/12 08:07:29;;;;;;;5.73;5.13;;;;;;;;;;5061640;28;20425;-44
2023/05/12 08:09:55;;;;;;;7.43;6.60;;;;;;;;;;5052097;27;20799;-44
2023/05/12 08:12:21;;;;;;;7.50;6.67;;;;;;;;;;5047831;28;20912;-45
2023/05/12 08:14:47;;;;;;;6.23;5.50;;;;;;;;;;5045964;28;20455;-44
2023/05/12 08:17:13;;;;;;;8.27;6.17;;;;;;;;;;5048155;28;20473;-44
2023/05/12 08:19:39;;;;;;;7.50;6.23;;;;;;;;;;5047977;28;20798;-44
2023/05/12 08:22:04;;;;;;;7.67;6.60;;;;;;;;;;5048081;28;20385;-44
2023/05/12 08:24:30;;;;;;;9.27;8.40;;;;;;;;;;5047774;28;20426;-45
2023/05/12 08:26:56;;;;;;;7.57;6.73;;;;;;;;;;5049369;28;20391;-46
2023/05/12 08:29:22;;;;;;;8.60;6.43;;;;;;;;;;5052801;28;20392;-46
2023/05/12 08:31:48;;;;;;;10.23;5.57;;;;;;;;;;5052161;28;20909;-49
2023/05/12 08:34:14;;;;;;;7.63;6.03;;;;;;;;;;5052409;28;20793;-49
2023/05/12 08:36:41;;;;;;;5.83;5.23;;;;;;;;;;5052271;28;20413;-49
2023/05/12 08:39:10;;;;;;;11.67;5.77;;;;;;;;;;5052246;28;20409;-49
2023/05/12 08:41:36;;;;;;;9.20;6.13;;;;;;;;;;5052086;28;20420;-46
2023/05/12 08:44:02;;;;;;;10.73;8.30;;;;;;;;;;5050123;28;20441;-47
2023/05/12 08:46:30;;;;;;;6.80;5.43;;;;;;;;;;5059884;28;20392;-49
2023/05/12 08:48:57;;;;;;;7.40;6.13;;;;;;;;;;5062849;28;20406;-47
2023/05/12 08:51:23;;;;;;;8.20;6.30;;;;;;;;;;5058217;28;20384;-48
2023/05/12 08:53:49;;;;;;;7.43;6.37;;;;;;;;;;5063306;27;20441;-47
2023/05/12 08:56:18;;;;;;;13.87;9.60;;;;;;;;;;5058727;28;20376;-48
2023/05/12 08:58:45;;;;;;;6.07;5.47;;;;;;;;;;5051859;28;20478;-48
2023/05/12 09:01:13;;;;;;;5.97;5.37;;;;;;;;;;5051915;28;20403;-46
2023/05/12 09:03:39;;;;;;;10.20;4.80;;;;;;;;;;5051699;28;20393;-48
2023/05/12 09:06:05;;;;;;;7.40;5.60;;;;;;;;;;5051276;28;20778;-49
2023/05/12 09:08:33;;;;;;;6.80;4.53;;;;;;;;;;5050848;28;20454;-47
2023/05/12 09:11:00;;;;;;;5.40;4.90;;;;;;;;;;5051191;28;20447;-48
2023/05/12 09:13:25;;;;;;;12.10;5.47;;;;;;;;;;5049884;28;20429;-48
2023/05/12 09:15:55;;;;;;;5.10;4.63;;;;;;;;;;5049664;28;20428;-49
2023/05/12 09:18:21;;;;;;;9.50;4.97;;;;;;;;;;5050809;28;20469;-47
2023/05/12 09:20:47;;;;;;;4.77;4.27;;;;;;;;;;5051103;27;20440;-48
2023/05/12 09:23:13;;;;;;;4.57;4.17;;;;;;;;;;5050646;27;20397;-49
2023/05/12 09:25:39;;;;;;;7.40;4.63;;;;;;;;;;5050756;27;20931;-48
2023/05/12 09:28:05;;;;;;;6.77;5.17;;;;;;;;;;5064502;27;20465;-46
2023/05/12 09:30:36;;;;;;;3.33;3.00;;;;;;;;;;5059614;28;20419;-45
2023/05/12 09:33:06;;;;;;;6.07;4.20;;;;;;;;;;5062099;28;20408;-45
2023/05/12 09:35:37;;;;;;;5.33;4.60;;;;;;;;;;5070434;28;20424;-45
2023/05/12 09:38:09;;;;;;;6.20;4.40;;;;;;;;;;5068855;27;20556;-45
2023/05/12 09:40:35;;;;;;;6.73;4.77;;;;;;;;;;5070710;27;20400;-45
2023/05/12 09:43:02;;;;;;;7.77;6.53;;;;;;;;;;5066291;27;20404;-46
2023/05/12 09:45:28;;;;;;;6.43;4.17;;;;;;;;;;5049939;27;20538;-45
2023/05/12 09:47:54;;;;;;;4.43;4.03;;;;;;;;;;5050517;28;20493;-45
2023/05/12 09:50:21;;;;;;;5.80;4.53;;;;;;;;;;5050336;28;20406;-46
2023/05/12 09:52:50;;;;;;;6.40;4.23;;;;;;;;;;5050223;28;20430;-46
2023/05/12 09:55:16;;;;;;;6.77;4.37;;;;;;;;;;5050297;28;20475;-45
2023/05/12 09:57:43;;;;;;;6.60;4.27;;;;;;;;;;5050340;28;20847;-45
2023/05/12 10:00:13;;;;;;;5.03;4.53;;;;;;;;;;5050408;28;20401;-44
2023/05/12 10:02:41;;;;;;;6.83;5.37;;;;;;;;;;5049983;28;20902;-46
2023/05/12 10:05:12;;;;;;;4.27;3.87;;;;;;;;;;5050149;28;20428;-46
2023/05/12 10:07:38;;;;;;;4.90;4.10;;;;;;;;;;5050045;28;20405;-46
2023/05/12 10:10:06;;;;;;;5.73;4.90;;;;;;;;;;5050155;28;20436;-47
2023/05/12 10:12:34;;;;;;;8.40;6.10;;;;;;;;;;5049844;28;20404;-46
2023/05/12 10:15:01;;;;;;;5.03;4.40;;;;;;;;;;5048792;27;20448;-44
2023/05/12 10:17:27;;;;;;;6.07;4.63;;;;;;;;;;5049806;28;20453;-46
2023/05/12 10:19:54;;;;;;;5.40;4.17;;;;;;;;;;5049820;28;20417;-46
2023/05/12 10:22:20;;;;;;;5.30;4.10;;;;;;;;;;5049822;28;20795;-45
2023/05/12 10:24:46;;;;;;;4.50;4.10;;;;;;;;;;5049711;28;20431;-47
2023/05/12 10:27:13;;;;;;;4.93;4.30;;;;;;;;;;5049872;28;20406;-45
2023/05/12 10:29:39;;;;;;;6.30;4.57;;;;;;;;;;5049731;28;20492;-46
2023/05/12 10:32:06;;;;;;;6.70;3.93;;;;;;;;;;5050053;28;20406;-45
2023/05/12 10:34:36;;;;;;;6.43;4.20;;;;;;;;;;5049529;28;20417;-45
2023/05/12 10:37:07;;;;;;;4.67;4.00;;;;;;;;;;5049466;28;20445;-46
2023/05/12 10:39:33;;;;;;;9.77;4.63;;;;;;;;;;5047980;28;20520;-45
2023/05/12 10:42:00;;;;;;;5.20;4.43;;;;;;;;;;5049678;28;20973;-44
2023/05/12 10:44:27;;;;;;;7.03;4.20;;;;;;;;;;5049296;28;20429;-45
2023/05/12 10:47:00;;;;;;;5.40;4.90;;;;;;;;;;5049769;28;20842;-45
2023/05/12 10:49:33;;;;;;;5.30;4.70;;;;;;;;;;5049306;28;20758;-45
2023/05/12 10:52:00;;;;;;;4.80;4.37;;;;;;;;;;5048726;28;20429;-47
2023/05/12 10:54:26;;;;;;;5.83;4.33;;;;;;;;;;5049261;28;20418;-45
2023/05/12 10:56:52;;;;;;;5.23;4.80;;;;;;;;;;5049260;28;20453;-46
2023/05/12 10:59:19;;;;;;;6.13;5.30;;;;;;;;;;5049396;28;20404;-45
2023/05/12 11:02:07;;;;;;;4.80;4.30;;;;;;;;;;5049357;28;20964;-45
2023/05/12 11:04:39;;;;;;;5.83;4.17;;;;;;;;;;5048945;28;20458;-45
2023/05/12 11:07:06;;;;;;;5.13;4.37;;;;;;;;;;5048505;28;20897;-45
2023/05/12 11:09:34;;;;;;;10.27;4.77;;;;;;;;;;5046358;28;21042;-45
2023/05/12 11:12:01;;;;;;;4.33;3.93;;;;;;;;;;5049283;28;20923;-46
2023/05/12 11:14:27;;;;;;;5.23;4.60;;;;;;;;;;5049082;28;20425;-45
2023/05/12 11:16:53;;;;;;;6.50;4.77;;;;;;;;;;5048926;28;20457;-46
2023/05/12 11:19:19;;;;;;;4.37;4.00;;;;;;;;;;5048958;28;20405;-47
2023/05/12 11:21:45;;;;;;;7.93;4.80;;;;;;;;;;5048907;28;20404;-45
2023/05/12 11:24:11;;;;;;;5.20;4.70;;;;;;;;;;5048873;28;20472;-45
2023/05/12 11:26:40;;;;;;;8.80;5.83;;;;;;;;;;5048948;28;20431;-45
2023/05/12 11:29:06;;;;;;;6.00;4.50;;;;;;;;;;5048950;28;20405;-45
2023/05/12 11:31:32;;;;;;;5.57;3.90;;;;;;;;;;5048783;28;20808;-46
2023/05/12 11:34:02;;;;;;;5.97;4.47;;;;;;;;;;5048569;28;20473;-46
2023/05/12 11:36:28;;;;;;;5.90;4.40;;;;;;;;;;5048685;28;20458;-45
2023/05/12 11:38:54;;;;;;;4.87;4.40;;;;;;;;;;5047705;28;20472;-45
2023/05/12 11:41:21;;;;;;;5.80;3.97;;;;;;;;;;5048174;28;20421;-45
2023/05/12 11:43:47;;;;;;;5.83;4.50;;;;;;;;;;5048470;28;20500;-46
2023/05/12 11:46:22;;;;;;;5.73;4.80;;;;;;;;;;5048785;28;20484;-47
2023/05/12 11:48:53;;;;;;;4.90;4.27;;;;;;;;;;5048435;28;20405;-45
2023/05/12 11:51:19;;;;;;;5.17;4.10;;;;;;;;;;5048665;28;20409;-46
2023/05/12 11:53:46;;;;;;;6.17;5.60;;;;;;;;;;5048344;28;20432;-45
2023/05/12 11:56:17;;;;;;;4.57;4.17;;;;;;;;;;5048628;28;20402;-45
2023/05/12 11:58:51;;;;;;;4.73;3.90;;;;;;;;;;5048519;28;20460;-45
2023/05/12 12:01:17;;;;;;;8.50;4.40;;;;;;;;;;5048864;28;20429;-46
2023/05/12 12:03:47;;;;;;;6.07;4.97;;;;;;;;;;5051783;28;20805;-45
2023/05/12 12:06:13;;;;;;;6.13;4.47;;;;;;;;;;5052074;28;20876;-46
2023/05/12 12:08:49;;;;;;;6.83;4.07;;;;;;;;;;5050062;28;20456;-45
2023/05/12 12:11:17;;;;;;;5.53;3.87;;;;;;;;;;5051160;28;20437;-44
2023/05/12 12:13:48;;;;;;;6.20;4.27;;;;;;;;;;5051699;28;20459;-45
2023/05/12 12:16:15;;;;;;;4.33;3.93;;;;;;;;;;5051922;28;20885;-45
2023/05/12 12:18:41;;;;;;;4.53;4.13;;;;;;;;;;5051712;28;20856;-45
2023/05/12 12:21:06;;;;;;;4.27;3.87;;;;;;;;;;5051845;28;20839;-46
2023/05/12 12:23:32;;;;;;;5.10;4.33;;;;;;;;;;5051412;28;20393;-48
2023/05/12 12:25:58;;;;;;;5.20;4.70;;;;;;;;;;5051810;28;20812;-45
2023/05/12 12:28:24;;;;;;;9.53;4.87;;;;;;;;;;5051596;28;20764;-45
2023/05/12 12:30:50;;;;;;;4.33;3.93;;;;;;;;;;5051706;28;20407;-45
2023/05/12 12:33:17;;;;;;;5.40;4.87;;;;;;;;;;5051391;28;20405;-46
2023/05/12 12:35:43;;;;;;;5.10;4.60;;;;;;;;;;5051745;28;20429;-45
2023/05/12 12:38:09;;;;;;;8.23;5.03;;;;;;;;;;5049460;28;20504;-44
2023/05/12 12:40:34;;;;;;;4.47;4.07;;;;;;;;;;5051578;28;20410;-45
2023/05/12 12:43:00;;;;;;;5.37;4.87;;;;;;;;;;5051158;28;20405;-45
2023/05/12 12:45:26;;;;;;;5.50;4.90;;;;;;;;;;5051332;28;20432;-47
2023/05/12 12:47:53;;;;;;;9.50;4.77;;;;;;;;;;5051274;28;20421;-46
2023/05/12 12:50:20;;;;;;;6.60;4.83;;;;;;;;;;5051409;28;20409;-45
2023/05/12 12:52:47;;;;;;;6.73;5.27;;;;;;;;;;5051159;28;20458;-45
2023/05/12 12:55:13;;;;;;;7.00;4.20;;;;;;;;;;5051235;28;20456;-45
2023/05/12 12:57:39;;;;;;;5.77;4.57;;;;;;;;;;5050891;28;20498;-46
2023/05/12 13:00:07;;;;;;;4.53;3.80;;;;;;;;;;5051209;28;20900;-46
2023/05/12 13:02:33;;;;;;;7.00;4.60;;;;;;;;;;5050913;28;20401;-45
2023/05/12 13:05:04;;;;;;;5.70;4.10;;;;;;;;;;5051256;28;20788;-45
2023/05/12 13:07:31;;;;;;;9.33;5.70;;;;;;;;;;5049383;28;20893;-46
2023/05/12 13:09:58;;;;;;;4.20;3.80;;;;;;;;;;5051002;28;20398;-47
2023/05/12 13:12:23;;;;;;;8.30;5.17;;;;;;;;;;5050685;28;20931;-45
2023/05/12 13:14:49;;;;;;;5.53;3.90;;;;;;;;;;5049902;28;20432;-45
2023/05/12 13:17:16;;;;;;;7.37;5.00;;;;;;;;;;5051121;28;20449;-46
2023/05/12 13:19:42;;;;;;;4.87;4.37;;;;;;;;;;5050802;28;20417;-45
2023/05/12 13:22:09;;;;;;;3.73;3.43;;;;;;;;;;5050998;28;20398;-45
2023/05/12 13:24:35;;;;;;;5.47;4.53;;;;;;;;;;5050621;28;20432;-44
2023/05/12 13:27:01;;;;;;;6.23;5.20;;;;;;;;;;5050756;28;20439;-45
2023/05/12 13:29:27;;;;;;;5.60;5.10;;;;;;;;;;5050737;28;20771;-45
2023/05/12 13:31:53;;;;;;;4.80;4.37;;;;;;;;;;5050728;28;20404;-45
2023/05/12 13:34:20;;;;;;;6.57;4.80;;;;;;;;;;5050615;28;20466;-45
2023/05/12 13:36:46;;;;;;;7.07;5.53;;;;;;;;;;5050509;28;20409;-44
2023/05/12 13:39:12;;;;;;;5.83;5.30;;;;;;;;;;5048966;27;20751;-44
2023/05/12 13:41:38;;;;;;;5.10;4.60;;;;;;;;;;5050766;28;20505;-44
2023/05/12 13:44:04;;;;;;;6.90;5.33;;;;;;;;;;5050280;28;20512;-45
2023/05/12 13:46:30;;;;;;;5.37;4.87;;;;;;;;;;5050114;28;20394;-45
2023/05/12 13:48:56;;;;;;;5.97;5.10;;;;;;;;;;5050779;28;20402;-45
2023/05/12 13:51:22;;;;;;;7.53;5.63;;;;;;;;;;5050462;28;20420;-45
2023/05/12 13:53:48;;;;;;;5.27;4.77;;;;;;;;;;5050107;28;20924;-45
2023/05/12 13:56:17;;;;;;;7.50;5.67;;;;;;;;;;5050265;28;20412;-46
2023/05/12 13:58:43;;;;;;;6.23;4.87;;;;;;;;;;5050583;28;20457;-45
2023/05/12 14:01:09;;;;;;;8.30;5.40;;;;;;;;;;5050463;28;20887;-44
2023/05/12 14:03:35;;;;;;;8.37;4.83;;;;;;;;;;5049957;28;20953;-45
2023/05/12 14:06:02;;;;;;;6.43;5.23;;;;;;;;;;5050392;28;20411;-46
2023/05/12 14:08:28;;;;;;;6.00;5.10;;;;;;;;;;5048862;28;20552;-45
2023/05/12 14:10:54;;;;;;;6.10;4.67;;;;;;;;;;5049524;28;20841;-45
2023/05/12 14:13:20;;;;;;;7.33;5.30;;;;;;;;;;5049831;28;20399;-46
2023/05/12 14:15:46;;;;;;;5.57;5.00;;;;;;;;;;5050469;28;20409;-45
2023/05/12 14:18:12;;;;;;;10.13;5.73;;;;;;;;;;5049795;28;20524;-46
2023/05/12 14:20:38;;;;;;;7.77;4.77;;;;;;;;;;5049826;28;20475;-46
2023/05/12 14:23:04;;;;;;;6.17;5.27;;;;;;;;;;5049538;28;20837;-47
2023/05/12 14:25:30;;;;;;;6.50;4.90;;;;;;;;;;5049686;28;20745;-45
2023/05/12 14:27:56;;;;;;;5.80;4.93;;;;;;;;;;5049887;28;20928;-45
2023/05/12 14:30:23;;;;;;;5.90;4.57;;;;;;;;;;5049721;28;20416;-46
2023/05/12 14:32:52;;;;;;;4.63;4.00;;;;;;;;;;5049678;28;20469;-46
2023/05/12 14:35:17;;;;;;;6.33;4.10;;;;;;;;;;5049761;28;20424;-47